Greenbush, Wisconsin
Current Conditions -  °F | °C
As of 8:53 AM on Friday 24 Oct 2014 (Local Time) from KSBM Reporting Station
Overcast Overcast  
Wind Chill: 47°   Ceiling: 800
Heat Index: 49°   Visibility: 10mi
Dew Point: 46°   Wind: 6mph
Humidity: 90%   Direction: 280°W
Pressure: 30.04"   Gusts: NA
Location:  43.78°N, 88.08°W
Report Text: KSBM 241353Z AUTO 28005KT 10SM OVC008 09/08 A3004 RMK AO2 SLP175 T00940078
Loading
Personal Weather Stations






























Interactive Weather Map
Tropical Storm Tracking
New forecast layout! Learn more

10-Day Weather Forecast

Advertisements
Track Severe Weather on mobile